Tiempo atmosférico en la estación meteorológica de Villaeles De Valdavia, Palencia (908 m.)



Fecha
DESCASC
Temp. máxima en grados centígrados (hora)
DESCASC
Temp. mínima en grados centígrados (hora)
DESCASC
Temp. media en grados centígrados
DESCASC
Racha de viento máxima en m/sg (hora)
DESCASC
Velocidad máxima media en intervalos de 10 minutos(hora)
DESCASC
Precipitaciones diarias en mm
DESCASC
Precipitaciones de 00:00 a 06:00 en mm
DESCASC
Precipitaciones de 06:00 a 12:00 en mm
DESCASC
Precipitaciones de 12:00 a 18:00 en mm
DESCASC
Precipitaciones de 18:00 a 24:00 en mm
DESCASC
16-04-2019 18.4 (18:20) 3.6 (05:30) 11 8.06 (15:10) 5 (18:30) 0 0 0 0 0
15-04-2019 20 (13:40) 5.4 (23:59) 12.7 18.89 (14:30) 11.94 (16:00) 1.6 0 0 1.6 0
14-04-2019 21.1 (16:20) 5.2 (00:00) 13.2 7.22 (16:40) 4.17 (16:30) 0 0 0 0 0
13-04-2019 18.3 (18:00) -1.3 (-00:0) 8.5 10.83 (18:40) 5.56 (17:30) 0 0 0 0 0
12-04-2019 16.7 (18:30) -1.9 (-00:0) 7.4 6.39 (13:00) 3.06 (20:10) 0 0 0 0 0
11-04-2019 12.2 (17:30) -2.3 (-00:0) 4.9 7.5 (21:20) 4.17 (21:20) 0 0 0 0 0
10-04-2019 10.3 (16:10) -0.8 (-00:0) 4.8 10 (16:40) 6.11 (18:40) 1 0 0.4 0.6 0
09-04-2019 11 (18:50) -0.4 (00:00) 5.3 12.78 (18:20) 8.06 (18:10) 2.8 0 2 0.8 0
08-04-2019 12 (17:40) 2.1 (00:00) 7 11.11 (17:30) 7.78 (17:30) 2.8 1.6 1.2 0 0
07-04-2019 10.9 (16:10) -0.4 (00:00) 5.2 13.89 (18:40) 8.33 (18:40) 2.4 0 0 0 2.4
06-04-2019 7 (18:20) -0.9 (-00:0) 3.1 11.94 (12:40) 8.06 (14:40) 4 0 0.6 2.4 1
05-04-2019 9.1 (18:50) -0.6 (-00:0) 4.3 10.56 (13:10) 7.5 (04:30) 5.4 4.6 0.8 0 0
04-04-2019 9.7 (16:30) -3.8 (-00:0) 2.9 13.61 (17:20) 8.89 (18:40) 3.2 0 0 0 3.2
03-04-2019 8.7 (14:10) -2.8 (23:30) 2.9 14.17 (19:00) 7.78 (17:40) 0 0 0 0 0
02-04-2019 17.1 (16:30) 0.3 (00:00) 8.7 10 (20:50) 5.83 (16:50) 0 0 0 0 0
01-04-2019 16.8 (17:30) -1.3 (-00:0) 7.7 7.22 (21:40) 4.44 (21:50) 0 0 0 0 0
31-03-2019 17 (18:00) 2.9 (00:00) 10 9.44 (15:40) 5 (13:20) 0 0 0 0 0
30-03-2019 18.9 (17:00) -2.1 (-00:0) 8.4 7.22 (19:50) 4.17 (19:50) 0 0 0 0 0
29-03-2019 18.4 (15:40) -0.3 (00:00) 9 8.61 (12:40) 5.56 (13:00) 0 0 0 0 0
28-03-2019 15.6 (15:30) 0.9 (00:00) 8.3 11.11 (13:50) 6.94 (12:10) 0 0 0 0 0
27-03-2019 14.6 (15:40) 1.1 (00:00) 7.9 16.11 (03:40) 9.72 (02:50) 0 0 0 0 0
26-03-2019 13.5 (16:00) 2 (00:00) 7.8 17.22 (13:40) 9.72 (12:50) 0 0 0 0 0
25-03-2019 11.4 (13:40) 2.2 (00:00) 6.8 14.72 (17:40) 8.61 (17:30) 0 0 0 0 0
24-03-2019 19.1 (15:20) 1.5 (00:00) 10.3 9.72 (18:20) 5.56 (18:40) 0 0 0 0 0
23-03-2019 19.9 (16:40) -1.6 (-00:0) 9.1 6.39 (17:10) 4.17 (15:20) 0 0 0 0 0
22-03-2019 17 (17:30) -2.7 (-00:0) 7.1 6.39 (17:30) 3.33 (13:20) 0 0 0 0 0
21-03-2019 12.6 (16:20) 0.4 (00:00) 6.5 9.44 (04:40) 6.39 (11:50) 0 0 0 0 0
20-03-2019 9.8 (16:50) 1.1 (00:00) 5.5 11.39 (17:50) 7.5 (17:50) 0 0 0 0 0
19-03-2019 10.9 (15:50) -0.1 (00:00) 5.4 11.39 (16:40) 6.94 (16:40) 0 0 0 0 0

Gráficas

Temp. máximas Temp. mínimas Temp. medias Precipitaciones Rachas de viento máximas Velocidades máximas media en intervalos de 10 minutos

Datos horarios

Fecha y hora oficial Temperatura (ºC) Velocidad del viento (km/h) Dirección del viento Racha (km/h) Dirección de racha Precipitación (mm) Presión (hPa) Tendencia (hPa) Humedad (%)
2019-04-17 23:00:00 11.7 10 Sudeste 28 Sudeste 0.6 -- -- 85
2019-04-17 22:00:00 13.2 12 Sudeste 58 Sur 0.2 -- -- 75
2019-04-17 21:00:00 13.7 15 Sudeste 64 Sur 0.2 -- -- 71
2019-04-17 20:00:00 16.7 33 Sur 63 Sur 0 -- -- 48
2019-04-17 19:00:00 17.7 28 Sur 40 Sur 0 -- -- 46
2019-04-17 18:00:00 16.3 11 Este 21 Este 0 -- -- 58
2019-04-17 17:00:00 15.4 8 Este 15 Sudeste 0 -- -- 59
2019-04-17 16:00:00 15.4 10 Sur 28 Sur 0 -- -- 61
2019-04-17 15:00:00 15.9 17 Sur 40 Sur 0 -- -- 59
2019-04-17 14:00:00 15.3 17 Sur 26 Sur 0 -- -- 64
2019-04-17 13:00:00 14.4 16 Sur 27 Sur 0 -- -- 67
2019-04-17 12:00:00 12.8 15 Sur 24 Sur 0 -- -- 72
2019-04-17 11:00:00 11.1 11 Sur 18 Sur 0 -- -- 81
2019-04-17 10:00:00 8 2 Oeste 7 Norte 0 -- -- 91
2019-04-17 09:00:00 5.1 2 Norte 6 Norte 0 -- -- 97
2019-04-17 08:00:00 2.9 2 Norte 5 Nordeste 0 -- -- 95
2019-04-17 07:00:00 3.6 4 Norte 7 Noroeste 0 -- -- 93
2019-04-17 06:00:00 4.2 4 Nordeste 9 Noroeste 0 -- -- 92
2019-04-17 05:00:00 4.6 7 Nordeste 10 Nordeste 0 -- -- 92
2019-04-17 04:00:00 4.6 5 Nordeste 9 Nordeste 0 -- -- 90
2019-04-17 03:00:00 5.2 4 Nordeste 6 Nordeste 0 -- -- 86
2019-04-17 02:00:00 5.8 3 Norte 10 Norte 0 -- -- 80
2019-04-17 01:00:00 6.1 5 Norte 9 Norte 0 -- -- 77
2019-04-17 00:00:00 6.5 5 Norte 8 Norte 0 -- -- 74
2019-04-16 23:00:00 7 4 Norte 8 Norte 0 -- -- 69
2019-04-16 22:00:00 8 5 Nordeste 9 Nordeste 0 -- -- 69
2019-04-16 21:00:00 10.9 5 Nordeste 6 Nordeste 0 -- -- 64
2019-04-16 20:00:00 16.2 3 Sudeste 24 Sur 0 -- -- 44
2019-04-16 19:00:00 17.8 16 Sur 26 Sur 0 -- -- 37
2019-04-16 18:00:00 18.1 12 Sur 26 Sur 0 -- -- 41
2019-04-16 17:00:00 17.6 15 Sudoeste 27 Sur 0 -- -- 45
2019-04-16 16:00:00 17.5 14 Sur 29 Sur 0 -- -- 41
2019-04-16 15:00:00 16.3 14 Sur 28 Sur 0 -- -- 49
2019-04-16 14:00:00 14.5 9 Sur 20 Sur 0 -- -- 57
2019-04-16 13:00:00 12.5 5 Sur 13 Sur 0 -- -- 62
2019-04-16 12:00:00 10.4 5 Sudeste 10 Sur 0 -- -- 76
2019-04-16 11:00:00 9.4 8 Sur 15 Sur 0 -- -- 82
2019-04-16 10:00:00 7.2 8 Este 14 Este 0 -- -- 88
2019-04-16 09:00:00 5.7 3 Este 7 Nordeste 0 -- -- 95
2019-04-16 08:00:00 4.6 4 Nordeste 5 Oeste 0 -- -- 95
2019-04-16 07:00:00 4.6 0 Calma 5 Norte 0 -- -- 95
2019-04-16 06:00:00 4.2 3 Norte 8 Este 0 -- -- 96
2019-04-16 05:00:00 4.8 4 Nordeste 7 Nordeste 0 -- -- 92
2019-04-16 04:00:00 6.7 3 Sur 8 Este 0 -- -- 89
2019-04-16 03:00:00 6.6 0 Calma 12 Nordeste 0 -- -- 90
2019-04-16 02:00:00 6.3 5 Este 17 Este 0 -- -- 94
2019-04-16 01:00:00 4.4 9 Este 13 Nordeste 0 -- -- 91
2019-04-16 00:00:00 5.4 2 Este 5 Sudoeste 0 -- -- 84
2019-04-15 23:00:00 8.2 3 Norte 17 Noroeste 0 -- -- 74
2019-04-15 22:00:00 9.9 10 Oeste 19 Oeste 0 -- -- 69
2019-04-15 21:00:00 10.8 13 Oeste 38 Oeste 0 -- -- 64
2019-04-15 20:00:00 13.5 24 Oeste 36 Oeste 0 -- -- 60
2019-04-15 19:00:00 13.1 23 Oeste 48 Oeste 0 -- -- 65
2019-04-15 18:00:00 16.1 33 Oeste 58 Oeste 0 -- -- 55
2019-04-15 17:00:00 17 32 Oeste 53 Oeste 0 -- -- 54
2019-04-15 16:00:00 17.2 43 Oeste 58 Sudoeste 0.2 -- -- 58
2019-04-15 15:00:00 14.4 32 Oeste 68 Oeste 1.4 -- -- 84
2019-04-15 14:00:00 18.7 34 Sudoeste 49 Sur 0 -- -- 62
2019-04-15 13:00:00 18.3 29 Sur 42 Sur 0 -- -- 67
2019-04-15 12:00:00 16.8 16 Sur 27 Sudoeste 0 -- -- 74
2019-04-15 11:00:00 13.9 11 Sur 16 Sur 0 -- -- 79
2019-04-15 10:00:00 11.2 6 Sur 10 Sur 0 -- -- 90
2019-04-15 09:00:00 8.5 0 Calma 7 Este 0 -- -- 95
2019-04-15 08:00:00 7.7 2 Este 6 Este 0 -- -- 93
2019-04-15 07:00:00 8.9 0 Calma 6 Noroeste 0 -- -- 92
2019-04-15 06:00:00 8.9 4 Norte 8 Nordeste 0 -- -- 91
2019-04-15 05:00:00 9.1 2 Nordeste 9 Norte 0 -- -- 91
2019-04-15 04:00:00 8.9 2 Norte 8 Nordeste 0 -- -- 92
2019-04-15 03:00:00 9 5 Nordeste 6 Nordeste 0 -- -- 90
2019-04-15 02:00:00 8.8 3 Norte 6 Norte 0 -- -- 89
2019-04-15 01:00:00 9.1 4 Norte 9 Norte 0 -- -- 89
2019-04-15 00:00:00 9.6 2 Noroeste 5 Este 0 -- -- 87
2019-04-14 23:00:00 11 3 Sudeste 6 Este 0 -- -- 83
2019-04-14 22:00:00 12.1 5 Sudeste 9 Sudeste 0 -- -- 79
2019-04-14 21:00:00 15.9 5 Sudeste 13 Sur 0 -- -- 66
2019-04-14 20:00:00 18.8 11 Sur 18 Sudeste 0 -- -- 57
2019-04-14 19:00:00 19 10 Sudeste 21 Sur 0 -- -- 57
2019-04-14 18:00:00 19.8 14 Sur 22 Sur 0 -- -- 53
2019-04-14 17:00:00 20.4 12 Sur 26 Sur 0 -- -- 53
2019-04-14 16:00:00 20.9 12 Sur 20 Sudeste 0 -- -- 54
2019-04-14 15:00:00 19.8 8 Sur 16 Sur 0 -- -- 55
2019-04-14 14:00:00 18 5 Oeste 15 Sur 0 -- -- 60
2019-04-14 13:00:00 16.6 8 Sudoeste 18 Sudoeste 0 -- -- 67
2019-04-14 12:00:00 14.9 7 Sur 14 Sur 0 -- -- 71
2019-04-14 11:00:00 12.3 4 Sur 6 Sudoeste 0 -- -- 75
2019-04-14 10:00:00 8.6 0 Calma 8 Noroeste 0 -- -- 81
2019-04-14 09:00:00 6 4 Norte 8 Norte 0 -- -- 90
2019-04-14 08:00:00 5.4 3 Norte 10 Norte 0 -- -- 89
2019-04-14 07:00:00 6.2 3 Norte 6 Nordeste 0 -- -- 89
2019-04-14 06:00:00 7 6 Nordeste 9 Nordeste 0 -- -- 87
2019-04-14 05:00:00 8.1 2 Noroeste 8 Nordeste 0 -- -- 84
2019-04-14 04:00:00 8.5 8 Nordeste 12 Nordeste 0 -- -- 82
2019-04-14 03:00:00 9.1 2 Noroeste 7 Norte 0 -- -- 77
2019-04-14 02:00:00 10.5 3 Norte 12 Oeste 0 -- -- 72
2019-04-14 01:00:00 11.5 8 Oeste 15 Oeste 0 -- -- 68
2019-04-14 00:00:00 9.8 0 Calma 7 Sudoeste 0 -- -- 71
2019-04-13 23:00:00 9.4 0 Calma 5 Sudeste 0 -- -- 68
2019-04-13 22:00:00 11.9 3 Este 13 Sur 0 -- -- 60
2019-04-13 21:00:00 14 8 Sudoeste 18 Sudoeste 0 -- -- 54
2019-04-13 20:00:00 16.5 13 Sudoeste 26 Oeste 0 -- -- 44
2019-04-13 19:00:00 17.9 16 Oeste 39 Sudoeste 0 -- -- 38
2019-04-13 18:00:00 18.3 16 Oeste 32 Sudoeste 0 -- -- 41
2019-04-13 17:00:00 17.6 17 Oeste 32 Oeste 0 -- -- 43
2019-04-13 16:00:00 17.1 16 Oeste 31 Oeste 0 -- -- 46
2019-04-13 15:00:00 16.3 19 Oeste 31 Oeste 0 -- -- 48
2019-04-13 14:00:00 15.5 19 Sudoeste 34 Sudoeste 0 -- -- 51
2019-04-13 13:00:00 14.9 13 Sudoeste 24 Sudoeste 0 -- -- 53
2019-04-13 12:00:00 13.2 11 Sur 18 Sur 0 -- -- 56
2019-04-13 11:00:00 10 6 Sur 10 Sur 0 -- -- 73
2019-04-13 10:00:00 4.7 2 Noroeste 6 Norte 0 -- -- 87
2019-04-13 09:00:00 0.4 4 Norte 9 Norte 0 -- -- 94
2019-04-13 08:00:00 -0.9 3 Norte 8 Norte 0 -- -- 94
2019-04-13 07:00:00 -1.3 4 Norte 9 Norte 0 -- -- 94
2019-04-13 06:00:00 -0.9 5 Norte 8 Noroeste 0 -- -- 94
2019-04-13 05:00:00 -0.5 4 Norte 10 Nordeste 0 -- -- 92
2019-04-13 04:00:00 0.7 5 Norte 13 Noroeste 0 -- -- 91
2019-04-13 03:00:00 1.4 4 Norte 11 Norte 0 -- -- 89
2019-04-13 02:00:00 2.1 5 Norte 12 Norte 0 -- -- 87
2019-04-13 01:00:00 3.2 6 Norte 12 Norte 0 -- -- 84
2019-04-13 00:00:00 4.3 3 Norte 13 Este 0 -- -- 77
2019-04-12 23:00:00 6.1 4 Sudoeste 14 Nordeste 0 -- -- 71
2019-04-12 22:00:00 6.4 10 Nordeste 18 Nordeste 0 -- -- 66
2019-04-12 21:00:00 10.7 2 Este 16 Sudoeste 0 -- -- 57
2019-04-12 20:00:00 16.5 7 Sur 16 Sur 0 -- -- 38
2019-04-12 19:00:00 15.9 5 Sudeste 18 Sudoeste 0 -- -- 38
2019-04-12 18:00:00 16.2 7 Sudoeste 17 Sur 0 -- -- 38
2019-04-12 17:00:00 15.8 9 Sudoeste 18 Sudoeste 0 -- -- 44
2019-04-12 16:00:00 14.5 7 Oeste 19 Sur 0 -- -- 48
2019-04-12 15:00:00 12.7 5 Sudoeste 13 Oeste 0 -- -- 45
2019-04-12 14:00:00 11.4 6 Oeste 18 Oeste 0 -- -- 47
2019-04-12 13:00:00 10.1 7 Oeste 23 Noroeste 0 -- -- 59
2019-04-12 12:00:00 8.2 6 Sudoeste 12 Oeste 0 -- -- 61
2019-04-12 11:00:00 5.7 5 Noroeste 10 Noroeste 0 -- -- 80
2019-04-12 10:00:00 1.8 5 Norte 10 Noroeste 0 -- -- 98
2019-04-12 09:00:00 -1.1 7 Norte 12 Norte 0 -- -- 98
2019-04-12 08:00:00 -1.8 6 Norte 11 Norte 0 -- -- 98
2019-04-12 07:00:00 -1.5 4 Norte 12 Noroeste 0 -- -- 97
2019-04-12 06:00:00 -1 6 Norte 12 Norte 0 -- -- 97
2019-04-12 05:00:00 -0.6 8 Norte 15 Noroeste 0 -- -- 96
2019-04-12 04:00:00 0.3 4 Norte 8 Norte 0 -- -- 95
2019-04-12 03:00:00 1.3 4 Norte 6 Noroeste 0 -- -- 94
2019-04-12 02:00:00 2.2 2 Noroeste 5 Este 0 -- -- 92
2019-04-12 01:00:00 2.8 0 Calma 7 Este 0 -- -- 91
2019-04-12 00:00:00 3 2 Nordeste 8 Este 0 -- -- 89
2019-04-11 23:00:00 4.5 2 Nordeste 13 Nordeste 0 -- -- 85
2019-04-11 22:00:00 5.5 11 Este 27 Este 0 -- -- 83
2019-04-11 21:00:00 6.9 14 Este 24 Este 0 -- -- 78
2019-04-11 20:00:00 8.9 12 Este 22 Este 0 -- -- 71
2019-04-11 19:00:00 11.3 5 Este 21 Este 0 -- -- 60
2019-04-11 18:00:00 11.4 6 Este 12 Sudoeste 0 -- -- 58
2019-04-11 17:00:00 10.8 3 Sudoeste 10 Noroeste 0 -- -- 56
2019-04-11 16:00:00 10.7 6 Oeste 14 Oeste 0 -- -- 56
2019-04-11 15:00:00 10.4 4 Noroeste 13 Oeste 0 -- -- 58
2019-04-11 14:00:00 10.8 7 Sudoeste 14 Sudoeste 0 -- -- 63
2019-04-11 13:00:00 10.4 8 Sur 21 Sudoeste 0 -- -- 63
2019-04-11 12:00:00 8 6 Sudoeste 19 Sudoeste 0 -- -- 75
2019-04-11 11:00:00 5.3 7 Sudoeste 12 Sudoeste 0 -- -- 88
2019-04-11 10:00:00 1.4 4 Noroeste 10 Norte 0 -- -- 97
2019-04-11 09:00:00 -1.4 3 Nordeste 7 Nordeste 0 -- -- 96
2019-04-11 08:00:00 -2.2 4 Norte 9 Norte 0 -- -- 96
2019-04-11 07:00:00 -1.8 7 Nordeste 12 Nordeste 0 -- -- 95
2019-04-11 06:00:00 -1.9 4 Nordeste 10 Norte 0 -- -- 95
2019-04-11 05:00:00 -1.8 8 Nordeste 11 Nordeste 0 -- -- 95
2019-04-11 04:00:00 -1.1 4 Norte 9 Nordeste 0 -- -- 95
2019-04-11 03:00:00 -0.6 4 Nordeste 11 Nordeste 0 -- -- 93
2019-04-11 02:00:00 0.1 2 Noroeste 8 Nordeste 0 -- -- 92
2019-04-11 01:00:00 2.1 0 Calma 8 Nordeste 0 -- -- 87
2019-04-11 00:00:00 3.4 4 Nordeste 23 Este 0 -- -- 82
2019-04-10 23:00:00 4.5 15 Nordeste 24 Nordeste 0 -- -- 77
2019-04-10 22:00:00 4.6 6 Norte 27 Nordeste 0 -- -- 76
2019-04-10 21:00:00 5.6 12 Nordeste 24 Nordeste 0 -- -- 76
2019-04-10 20:00:00 6.8 12 Nordeste 31 Nordeste 0 -- -- 77
2019-04-10 19:00:00 9.7 12 Este 31 Nordeste 0 -- -- 66
2019-04-10 18:00:00 9.8 9 Norte 18 Norte 0 -- -- 70
2019-04-10 17:00:00 6.9 6 Noroeste 36 Noroeste 0.4 -- -- 81
2019-04-10 16:00:00 9.9 9 Sudoeste 16 Oeste 0 -- -- 65
2019-04-10 15:00:00 7.8 6 Oeste 15 Oeste 0 -- -- 76
2019-04-10 14:00:00 6.6 8 Noroeste 18 Noroeste 0 -- -- 84
2019-04-10 13:00:00 4.5 6 Noroeste 23 Oeste 0.2 -- -- 89
2019-04-10 12:00:00 5.2 9 Noroeste 15 Noroeste 0.2 -- -- 88
2019-04-10 11:00:00 4.1 12 Noroeste 15 Oeste 0.2 -- -- 89
2019-04-10 10:00:00 3.3 2 Sur 6 Sudeste 0 -- -- 99
2019-04-10 09:00:00 1 3 Oeste 7 Este 0 -- -- 98
2019-04-10 08:00:00 -0.7 3 Este 6 Este 0 -- -- 95
2019-04-10 07:00:00 0.4 2 Este 3 Este 0 -- -- 96
2019-04-10 06:00:00 -0.2 0 Calma 7 Nordeste 0 -- -- 95
2019-04-10 05:00:00 0.3 6 Nordeste 8 Nordeste 0 -- -- 95
2019-04-10 04:00:00 0.8 4 Nordeste 9 Nordeste 0 -- -- 92
2019-04-10 03:00:00 2.7 8 Noroeste 13 Noroeste 0 -- -- 89
2019-04-10 02:00:00 3.4 6 Noroeste 14 Oeste 0 -- -- 88
2019-04-10 01:00:00 3.9 12 Oeste 23 Oeste 0 -- -- 84
2019-04-10 00:00:00 3.3 4 Norte 28 Oeste 0 -- -- 84
2019-04-09 23:00:00 4.8 15 Oeste 38 Oeste 0 -- -- 79
2019-04-09 22:00:00 5.6 17 Oeste 27 Oeste 0 -- -- 77
2019-04-09 21:00:00 6.9 11 Oeste 31 Oeste 0 -- -- 65
2019-04-09 20:00:00 9.8 27 Oeste 37 Oeste 0 -- -- 52
2019-04-09 19:00:00 10.6 23 Oeste 46 Oeste 0 -- -- 60
2019-04-09 18:00:00 10.2 23 Oeste 35 Oeste 0 -- -- 61
2019-04-09 17:00:00 7.8 22 Oeste 37 Oeste 0 -- -- 76
2019-04-09 16:00:00 9 23 Oeste 32 Oeste 0 -- -- 79
2019-04-09 15:00:00 6.7 17 Oeste 27 Oeste 0 -- -- 87
2019-04-09 14:00:00 5.8 19 Oeste 27 Oeste 0 -- -- 89
2019-04-09 13:00:00 5.2 16 Oeste 37 Sudoeste 0.8 -- -- 91
2019-04-09 12:00:00 5.6 22 Sudoeste 35 Sudoeste 0.4 -- -- 92
2019-04-09 11:00:00 5 20 Sudoeste 31 Sudoeste 0.4 -- -- 95
2019-04-09 10:00:00 4.3 21 Sudoeste 29 Sudoeste 0.4 -- -- 96
2019-04-09 09:00:00 4 18 Sudoeste 28 Sudoeste 0.6 -- -- 96
2019-04-09 08:00:00 3.7 13 Sudoeste 23 Sudoeste 0.2 -- -- 96
2019-04-09 07:00:00 3.6 9 Sudoeste 24 Sudoeste 0 -- -- 96
2019-04-09 06:00:00 3.1 13 Sudoeste 25 Sudoeste 0 -- -- 97
2019-04-09 05:00:00 0.3 0 Calma 8 Noroeste 0 -- -- 96
2019-04-09 04:00:00 -0.4 0 Calma 7 Nordeste 0 -- -- 95
2019-04-09 03:00:00 -0.1 2 Norte 6 Este 0 -- -- 94
2019-04-09 02:00:00 0.7 4 Nordeste 9 Nordeste 0 -- -- 92
2019-04-09 01:00:00 1.3 0 Calma 6 Nordeste 0 -- -- 89
2019-04-09 00:00:00 2.1 2 Norte 9 Sudoeste 0 -- -- 87
2019-04-08 23:00:00 5 8 Sudoeste 24 Oeste 0 -- -- 77
2019-04-08 22:00:00 6.9 19 Sudoeste 30 Oeste 0 -- -- 69
2019-04-08 21:00:00 8.6 22 Oeste 37 Sudoeste 0 -- -- 57
2019-04-08 20:00:00 10.7 22 Sudoeste 39 Sudoeste 0 -- -- 53
2019-04-08 19:00:00 11.8 26 Oeste 37 Sudoeste 0 -- -- 51
2019-04-08 18:00:00 11.2 23 Oeste 40 Sudoeste 0 -- -- 51
2019-04-08 17:00:00 10.8 18 Oeste 31 Sur 0 -- -- 54
2019-04-08 16:00:00 10.9 19 Sudoeste 36 Sudoeste 0 -- -- 56
2019-04-08 15:00:00 11.4 22 Sudoeste 34 Oeste 0 -- -- 58
2019-04-08 14:00:00 9.4 21 Oeste 37 Oeste 0 -- -- 63
2019-04-08 13:00:00 9.5 21 Oeste 39 Noroeste 0 -- -- 66
2019-04-08 12:00:00 9 19 Oeste 30 Oeste 0 -- -- 77
2019-04-08 11:00:00 7.6 16 Noroeste 27 Oeste 0 -- -- 83
2019-04-08 10:00:00 6.2 9 Oeste 20 Oeste 0 -- -- 94
2019-04-08 09:00:00 4.9 5 Noroeste 15 Noroeste 0 -- -- 98
2019-04-08 08:00:00 4.1 3 Noroeste 6 Oeste 0 -- -- 98
2019-04-08 07:00:00 3.9 2 Norte 10 Norte 1.2 -- -- 98
2019-04-08 06:00:00 3.7 3 Norte 10 Nordeste 0.2 -- -- 98
2019-04-08 05:00:00 3.4 0 Calma 5 Noroeste 0.2 -- -- 98
2019-04-08 04:00:00 3.1 4 Norte 7 Norte 0.2 -- -- 97
2019-04-08 03:00:00 2.8 3 Norte 8 Norte 0.2 -- -- 97
2019-04-08 02:00:00 2.9 4 Norte 8 Norte 0.4 -- -- 97
2019-04-08 01:00:00 3.2 4 Norte 9 Nordeste 0.4 -- -- 96
2019-04-08 00:00:00 3.6 4 Nordeste 6 Nordeste 0.2 -- -- 95
2019-04-07 23:00:00 3.7 4 Oeste 24 Sudoeste 0.6 -- -- 93
2019-04-07 22:00:00 4.2 19 Sudoeste 33 Sur 0.8 -- -- 91
2019-04-07 21:00:00 4.4 15 Sudoeste 30 Sudoeste 0.2 -- -- 91
2019-04-07 20:00:00 5.1 24 Sudoeste 41 Sudoeste 0.4 -- -- 85
2019-04-07 19:00:00 6.7 24 Sudoeste 50 Sudoeste 0.2 -- -- 78
2019-04-07 18:00:00 9.5 21 Sudoeste 36 Sudoeste 0 -- -- 57
2019-04-07 17:00:00 10.7 25 Sudoeste 36 Sudoeste 0 -- -- 54
2019-04-07 16:00:00 10.2 21 Sudoeste 42 Sudoeste 0 -- -- 56
2019-04-07 15:00:00 10.5 23 Sudoeste 36 Sudoeste 0 -- -- 58
2019-04-07 14:00:00 9.2 19 Sudoeste 30 Sudoeste 0 -- -- 57
2019-04-07 13:00:00 8 15 Sudoeste 25 Sudoeste 0 -- -- 65
2019-04-07 12:00:00 6.6 16 Oeste 27 Sudoeste 0 -- -- 65
2019-04-07 11:00:00 4.9 17 Oeste 24 Oeste 0 -- -- 80
2019-04-07 10:00:00 2 9 Noroeste 21 Noroeste 0 -- -- 90
2019-04-07 09:00:00 0.2 6 Oeste 12 Oeste 0 -- -- 94
2019-04-07 08:00:00 -0.2 8 Sudoeste 17 Noroeste 0 -- -- 93
2019-04-07 07:00:00 0.3 8 Noroeste 13 Noroeste 0 -- -- 94
2019-04-07 06:00:00 -0.1 2 Noroeste 22 Oeste 0 -- -- 92
2019-04-07 05:00:00 0.6 13 Oeste 30 Oeste 0 -- -- 92
2019-04-07 04:00:00 0.5 22 Oeste 34 Oeste 0 -- -- 93
2019-04-07 03:00:00 0.3 14 Oeste 22 Oeste 0 -- -- 93
2019-04-07 02:00:00 0.7 13 Oeste 28 Oeste 0 -- -- 92
2019-04-07 01:00:00 1.3 16 Oeste 28 Oeste 0 -- -- 89
2019-04-07 00:00:00 1.3 7 Noroeste 18 Noroeste 0.2 -- -- 89
2019-04-06 23:00:00 2.2 17 Oeste 31 Oeste 0 -- -- 89
2019-04-06 22:00:00 2.2 4 Oeste 22 Oeste 0 -- -- 92
2019-04-06 21:00:00 2.5 18 Oeste 27 Oeste 0 -- -- 92
2019-04-06 20:00:00 2.4 3 Nordeste 19 Noroeste 0.4 -- -- 92
2019-04-06 19:00:00 3 8 Nordeste 41 Sudoeste 0.4 -- -- 87
2019-04-06 18:00:00 6 23 Sudoeste 34 Sudoeste 0.6 -- -- 87
2019-04-06 17:00:00 5.9 17 Oeste 34 Oeste 1 -- -- 89
2019-04-06 16:00:00 3.9 23 Noroeste 40 Noroeste 0 -- -- 85
2019-04-06 15:00:00 6.2 19 Sudoeste 42 Sudoeste 0.2 -- -- 89
2019-04-06 14:00:00 4 22 Sudoeste 41 Sudoeste 0.4 -- -- 88
2019-04-06 13:00:00 4 24 Sudoeste 43 Sudoeste 0.2 -- -- 91
2019-04-06 12:00:00 3 26 Sudoeste 40 Sudoeste 0.2 -- -- 91
2019-04-06 11:00:00 2.5 23 Sudoeste 34 Sudoeste 0.2 -- -- 89
2019-04-06 10:00:00 1.8 21 Oeste 36 Sudoeste 0.2 -- -- 94
2019-04-06 09:00:00 1.6 22 Sudoeste 33 Sudoeste 0 -- -- 96
2019-04-06 08:00:00 1.2 16 Sudoeste 24 Sudoeste 0 -- -- 95
2019-04-06 07:00:00 0.9 21 Sudoeste 29 Sudoeste 0 -- -- 96
2019-04-06 06:00:00 0.4 12 Oeste 23 Sudoeste 0 -- -- 96
2019-04-06 05:00:00 0.7 12 Sudoeste 20 Sudoeste 0 -- -- 96
2019-04-06 04:00:00 0.4 12 Sudoeste 18 Sudoeste 0 -- -- 96
2019-04-06 03:00:00 0.3 8 Sudoeste 14 Sudoeste 0 -- -- 95
2019-04-06 02:00:00 -0.7 5 Sur 13 Sudoeste 0 -- -- 94
2019-04-06 01:00:00 -0.8 4 Sur 13 Oeste 0 -- -- 90
2019-04-06 00:00:00 -0.6 0 Calma 9 Oeste 0 -- -- 91
2019-04-05 23:00:00 1.3 6 Sudoeste 17 Oeste 0 -- -- 89
2019-04-05 22:00:00 2.7 13 Sudoeste 31 Sudoeste 0 -- -- 82
2019-04-05 21:00:00 4.4 26 Sudoeste 35 Sudoeste 0 -- -- 71
2019-04-05 20:00:00 7.5 19 Sudoeste 32 Sudoeste 0 -- -- 61
2019-04-05 19:00:00 8.9 19 Oeste 36 Noroeste 0 -- -- 51
2019-04-05 18:00:00 8.3 23 Sudoeste 36 Sudoeste 0 -- -- 58
2019-04-05 17:00:00 7.5 18 Sudoeste 38 Sudoeste 0 -- -- 61
2019-04-05 16:00:00 7.1 22 Sudoeste 38 Sudoeste 0 -- -- 67
2019-04-05 15:00:00 5.6 21 Sudoeste 36 Oeste 0 -- -- 66
2019-04-05 14:00:00 6 20 Sudoeste 38 Sudoeste 0 -- -- 69
2019-04-05 13:00:00 5.6 20 Sudoeste 34 Sudoeste 0 -- -- 82
2019-04-05 12:00:00 5 23 Sudoeste 31 Sudoeste 0 -- -- 86
2019-04-05 11:00:00 3.8 18 Sudoeste 31 Sudoeste 0 -- -- 93
2019-04-05 10:00:00 3.5 14 Sudoeste 23 Sudoeste 0 -- -- 92
2019-04-05 09:00:00 2.9 14 Sudoeste 22 Sudoeste 0.2 -- -- 96
2019-04-05 08:00:00 2.8 15 Oeste 28 Sur 0.4 -- -- 96
2019-04-05 07:00:00 2.8 16 Sur 28 Sur 0.2 -- -- 97
2019-04-05 06:00:00 2.5 20 Sur 36 Sur 0.2 -- -- 97
2019-04-05 05:00:00 2.3 26 Sur 36 Sur 0.8 -- -- 96
2019-04-05 04:00:00 2.5 26 Sur 36 Sur 1.4 -- -- 95
2019-04-05 03:00:00 2.6 19 Sur 29 Sudoeste 1 -- -- 95
2019-04-05 02:00:00 2.5 17 Sur 25 Sur 0.4 -- -- 95
2019-04-05 01:00:00 2 15 Sur 22 Sur 0.8 -- -- 94
2019-04-05 00:00:00 2.2 11 Sur 22 Sur 1 -- -- 93
2019-04-04 23:00:00 2.3 13 Sudoeste 31 Sudoeste 0.6 -- -- 93
2019-04-04 22:00:00 2.4 14 Sudoeste 26 Sudoeste 0.8 -- -- 93
2019-04-04 21:00:00 2.5 14 Sudoeste 36 Sudoeste 0.6 -- -- 91
2019-04-04 20:00:00 3.5 26 Sudoeste 45 Sudoeste 0.2 -- -- 86
2019-04-04 19:00:00 7 29 Sudoeste 48 Sudoeste 0 -- -- 52
2019-04-04 18:00:00 8.4 27 Sudoeste 49 Oeste 0 -- -- 40
2019-04-04 17:00:00 8.9 30 Sudoeste 43 Sudoeste 0 -- -- 43
2019-04-04 16:00:00 9.6 31 Sudoeste 44 Sudoeste 0 -- -- 41
2019-04-04 15:00:00 8.5 27 Sudoeste 46 Sudoeste 0 -- -- 45
2019-04-04 14:00:00 6.5 24 Oeste 39 Sudoeste 0 -- -- 54
2019-04-04 13:00:00 5.9 22 Oeste 33 Sudoeste 0 -- -- 53
2019-04-04 12:00:00 5.2 20 Oeste 31 Sudoeste 0 -- -- 58
2019-04-04 11:00:00 3.4 18 Oeste 26 Oeste 0 -- -- 61
2019-04-04 10:00:00 0 13 Noroeste 21 Oeste 0 -- -- 82
2019-04-04 09:00:00 -2.5 9 Oeste 16 Oeste 0 -- -- 88
2019-04-04 08:00:00 -3.3 11 Oeste 21 Oeste 0 -- -- 85
2019-04-04 07:00:00 -3.4 3 Nordeste 10 Sudoeste 0 -- -- 85
2019-04-04 06:00:00 -3.5 4 Noroeste 21 Oeste 0 -- -- 84
2019-04-04 05:00:00 -3.2 5 Noroeste 12 Oeste 0 -- -- 83
2019-04-04 04:00:00 -3.4 3 Noroeste 15 Oeste 0 -- -- 83
2019-04-04 03:00:00 -2.6 5 Oeste 12 Oeste 0 -- -- 81
2019-04-04 02:00:00 -2.8 5 Sudoeste 12 Sudoeste 0 -- -- 83
2019-04-04 01:00:00 -2.8 2 Sudoeste 10 Sur 0 -- -- 81
2019-04-04 00:00:00 -2 7 Sudoeste 11 Sur 0 -- -- 79
2019-04-03 23:00:00 -1.7 2 Sudeste 13 Oeste 0 -- -- 77
2019-04-03 22:00:00 0.2 9 Oeste 19 Oeste 0 -- -- 73
2019-04-03 21:00:00 1.9 7 Noroeste 26 Norte 0 -- -- 66
2019-04-03 20:00:00 4.5 17 Noroeste 38 Noroeste 0 -- -- 51
2019-04-03 19:00:00 5.8 20 Noroeste 51 Noroeste 0 -- -- 46
2019-04-03 18:00:00 7.5 24 Noroeste 44 Oeste 0 -- -- 43
2019-04-03 17:00:00 7.2 19 Noroeste 42 Oeste 0 -- -- 46
2019-04-03 16:00:00 6.8 19 Noroeste 50 Noroeste 0 -- -- 47
2019-04-03 15:00:00 8.6 25 Noroeste 44 Noroeste 0 -- -- 40
2019-04-03 14:00:00 8.5 19 Noroeste 46 Noroeste 0 -- -- 44
2019-04-03 13:00:00 8.5 16 Noroeste 39 Oeste 0 -- -- 48
2019-04-03 12:00:00 6.2 17 Noroeste 34 Noroeste 0 -- -- 57
2019-04-03 11:00:00 5.2 14 Noroeste 29 Oeste 0 -- -- 67
2019-04-03 10:00:00 3.6 19 Noroeste 25 Oeste 0 -- -- 73
2019-04-03 09:00:00 -0.4 4 Norte 12 Nordeste 0 -- -- 90
2019-04-03 08:00:00 -2.4 3 Norte 7 Noroeste 0 -- -- 94
2019-04-03 07:00:00 -1.5 3 Norte 9 Norte 0 -- -- 92
2019-04-03 06:00:00 -0.6 5 Norte 9 Norte 0 -- -- 93
2019-04-03 05:00:00 -0.1 3 Norte 10 Noroeste 0 -- -- 94
2019-04-03 04:00:00 -0.3 4 Norte 9 Norte 0 -- -- 93
2019-04-03 03:00:00 0.6 4 Nordeste 8 Norte 0 -- -- 92
2019-04-03 02:00:00 1.5 0 Calma 5 Oeste 0 -- -- 91
2019-04-03 01:00:00 3.4 0 Calma 6 Este 0 -- -- 88
2019-04-03 00:00:00 4.8 0 Calma 9 Nordeste 0 -- -- 85
2019-04-02 23:00:00 5.2 0 Calma 13 Norte 0 -- -- 84
2019-04-02 22:00:00 5.6 11 Nordeste 26 Nordeste 0 -- -- 83
2019-04-02 21:00:00 7 16 Nordeste 36 Nordeste 0 -- -- 78
2019-04-02 20:00:00 8.8 16 Nordeste 31 Este 0 -- -- 73
2019-04-02 19:00:00 10.7 17 Este 31 Este 0 -- -- 65
2019-04-02 18:00:00 14.5 15 Oeste 32 Sudoeste 0 -- -- 46
2019-04-02 17:00:00 16.6 19 Sudoeste 33 Oeste 0 -- -- 40
2019-04-02 16:00:00 16.1 15 Sudoeste 27 Sudoeste 0 -- -- 42
2019-04-02 15:00:00 16 9 Sur 19 Sur 0 -- -- 42
2019-04-02 14:00:00 15.5 9 Sur 18 Sur 0 -- -- 46
2019-04-02 13:00:00 13.6 10 Sur 16 Sur 0 -- -- 55
2019-04-02 12:00:00 10.6 7 Sudeste 16 Nordeste 0 -- -- 60
2019-04-02 11:00:00 7.5 2 Sudoeste 9 Noroeste 0 -- -- 75
2019-04-02 10:00:00 4 5 Norte 15 Norte 0 -- -- 86
2019-04-02 09:00:00 1.3 8 Norte 13 Norte 0 -- -- 90
2019-04-02 08:00:00 0.9 5 Norte 12 Norte 0 -- -- 91
2019-04-02 07:00:00 0.8 6 Norte 14 Nordeste 0 -- -- 93
2019-04-02 06:00:00 0.4 5 Nordeste 10 Norte 0 -- -- 91
2019-04-02 05:00:00 2 4 Norte 9 Norte 0 -- -- 88
2019-04-02 04:00:00 3.2 5 Norte 10 Norte 0 -- -- 87
2019-04-02 03:00:00 4.2 2 Noroeste 8 Nordeste 0 -- -- 83
2019-04-02 02:00:00 6.6 3 Norte 9 Nordeste 0 -- -- 76
2019-04-02 01:00:00 6.8 4 Norte 9 Nordeste 0 -- -- 80
2019-04-02 00:00:00 6.8 3 Noroeste 15 Este 0 -- -- 78
2019-04-01 23:00:00 7.9 10 Nordeste 24 Nordeste 0 -- -- 76
2019-04-01 22:00:00 9.1 15 Nordeste 26 Nordeste 0 -- -- 71
2019-04-01 21:00:00 10.4 12 Nordeste 24 Nordeste 0 -- -- 70
2019-04-01 20:00:00 12.7 6 Sudeste 14 Sudeste 0 -- -- 55
2019-04-01 19:00:00 14.2 6 Sudeste 13 Sudoeste 0 -- -- 49
2019-04-01 18:00:00 16.6 4 Sur 16 Sudoeste 0 -- -- 42
2019-04-01 17:00:00 16.4 9 Sur 23 Sur 0 -- -- 45
2019-04-01 16:00:00 14.8 9 Sur 23 Sudoeste 0 -- -- 50
2019-04-01 15:00:00 12.6 6 Este 16 Nordeste 0 -- -- 55
2019-04-01 14:00:00 14.1 6 Oeste 22 Sudoeste 0 -- -- 47
2019-04-01 13:00:00 12.5 5 Oeste 17 Oeste 0 -- -- 54
2019-04-01 12:00:00 10.8 5 Sur 12 Sudoeste 0 -- -- 65
2019-04-01 11:00:00 7 4 Sur 8 Noroeste 0 -- -- 81
2019-04-01 10:00:00 2.5 2 Norte 6 Noroeste 0 -- -- 90
2019-04-01 09:00:00 0.3 2 Norte 10 Norte 0 -- -- 92
2019-04-01 08:00:00 0.7 5 Norte 9 Noroeste 0 -- -- 91
2019-04-01 07:00:00 0.1 4 Norte 10 Norte 0 -- -- 92
2019-04-01 06:00:00 -0.8 0 Calma 8 Norte 0 -- -- 87
2019-04-01 05:00:00 -0.8 4 Norte 8 Norte 0 -- -- 88
2019-04-01 04:00:00 0.5 4 Norte 10 Norte -- -- -- 84
2019-04-01 03:00:00 0.9 5 Norte 10 Noroeste 0 -- -- 83
2019-04-01 02:00:00 1.1 5 Nordeste 6 Nordeste 0 -- -- 81
2019-04-01 01:00:00 2.8 4 Este 6 Este 0 -- -- 78
2019-04-01 00:00:00 4.6 3 Nordeste 8 Nordeste 0 -- -- 73
2019-03-31 23:00:00 7.9 6 Nordeste 16 Este 0 -- -- 63
2019-03-31 22:00:00 9.6 9 Este 16 Este 0 -- -- 56
2019-03-31 21:00:00 11.4 10 Este 27 Este 0 -- -- 48
2019-03-31 20:00:00 13.8 12 Nordeste 26 Este 0 -- -- 41
2019-03-31 19:00:00 15.5 13 Este 27 Este 0 -- -- 36
2019-03-31 18:00:00 17 18 Este 30 Este 0 -- -- 30
2019-03-31 17:00:00 14.8 13 Este 31 Este 0 -- -- 37
2019-03-31 16:00:00 16 14 Este 34 Este 0 -- -- 36
2019-03-31 15:00:00 15.5 15 Este 33 Este 0 -- -- 35
2019-03-31 14:00:00 15.7 15 Este 32 Este 0 -- -- 37
2019-03-31 13:00:00 13.9 14 Nordeste 24 Este 0 -- -- 44
2019-03-31 12:00:00 12.9 9 Este 21 Este 0 -- -- 49
2019-03-31 11:00:00 10.4 11 Este 20 Este 0 -- -- 51
2019-03-31 10:00:00 7.1 5 Nordeste 12 Nordeste 0 -- -- 62
2019-03-31 09:00:00 3.8 3 Noroeste 6 Norte 0 -- -- 69
2019-03-31 08:00:00 2.9 3 Norte 9 Nordeste 0 -- -- 70
2019-03-31 07:00:00 3.9 3 Noroeste 10 Nordeste 0 -- -- 67
2019-03-31 06:00:00 4.7 4 Norte 9 Nordeste 0 -- -- 65
2019-03-31 05:00:00 5 4 Nordeste 12 Nordeste 0 -- -- 67
2019-03-31 03:00:00 6.5 8 Nordeste 13 Nordeste 0 -- -- 67
2019-03-31 01:00:00 7.9 9 Nordeste 17 Este 0 -- -- 65
2019-03-31 00:00:00 9.3 8 Nordeste 15 Nordeste 0 -- -- 62
2019-03-30 23:00:00 9.5 6 Nordeste 16 Este 0 -- -- 65
2019-03-30 22:00:00 9.7 3 Norte 15 Nordeste 0 -- -- 63
2019-03-30 21:00:00 10.8 9 Nordeste 22 Nordeste 0 -- -- 61
2019-03-30 20:00:00 12.7 12 Nordeste 26 Nordeste 0 -- -- 50
2019-03-30 19:00:00 14.4 3 Este 9 Sur 0 -- -- 45
2019-03-30 18:00:00 16.4 4 Este 17 Sudoeste 0 -- -- 37
2019-03-30 17:00:00 18.9 8 Sur 18 Sur 0 -- -- 32
2019-03-30 16:00:00 18.3 11 Sur 20 Sur 0 -- -- 32
2019-03-30 15:00:00 17.3 9 Sur 17 Sur 0 -- -- 34
2019-03-30 14:00:00 17.2 10 Sur 22 Sur 0 -- -- 38
2019-03-30 13:00:00 15.2 11 Sur 21 Sudoeste 0 -- -- 45
2019-03-30 12:00:00 13.7 9 Sur 16 Sudoeste 0 -- -- 48
2019-03-30 11:00:00 11.6 9 Sur 15 Sur 0 -- -- 54
2019-03-30 10:00:00 8.1 5 Sur 9 Sudoeste 0 -- -- 67
2019-03-30 09:00:00 2.9 3 Noroeste 9 Norte 0 -- -- 80
2019-03-30 08:00:00 -0.4 5 Norte 12 Norte 0 -- -- 85
2019-03-30 07:00:00 -1.5 5 Norte 8 Noroeste 0 -- -- 89
2019-03-30 06:00:00 -0.8 2 Nordeste 10 Norte 0 -- -- 84
2019-03-30 05:00:00 0.2 3 Norte 14 Noroeste 0 -- -- 81
2019-03-30 04:00:00 1.1 6 Norte 12 Norte 0 -- -- 80
2019-03-30 03:00:00 0.7 3 Noroeste 14 Sudeste 0 -- -- 81
2019-03-30 02:00:00 1.4 5 Norte 12 Norte 0 -- -- 76
2019-03-30 01:00:00 1.6 4 Norte 10 Norte 0 -- -- 74
2019-03-30 00:00:00 3.1 5 Norte 9 Norte 0 -- -- 69
2019-03-29 23:00:00 3.5 4 Noroeste 15 Nordeste 0 -- -- 66
2019-03-29 22:00:00 5.1 7 Norte 12 Norte 0 -- -- 61
2019-03-29 21:00:00 6.4 3 Nordeste 8 Sudeste 0 -- -- 59
2019-03-29 20:00:00 10.1 5 Este 14 Sudoeste 0 -- -- 49
2019-03-29 19:00:00 17.4 12 Sur 23 Sur 0 -- -- 32
2019-03-29 18:00:00 18.4 15 Sur 25 Sudoeste 0 -- -- 29
2019-03-29 17:00:00 18 9 Sudoeste 28 Sudoeste 0 -- -- 32
2019-03-29 16:00:00 17.6 15 Sudoeste 30 Sudoeste 0 -- -- 33
2019-03-29 15:00:00 17.5 15 Sudoeste 26 Sudoeste 0 -- -- 33
2019-03-29 14:00:00 15.6 14 Sudoeste 27 Sudoeste 0 -- -- 38
2019-03-29 13:00:00 14.8 20 Sudoeste 31 Sur 0 -- -- 38
2019-03-29 12:00:00 13.8 14 Sur 24 Sur 0 -- -- 43
2019-03-29 11:00:00 11.3 10 Sur 18 Sur 0 -- -- 49
2019-03-29 10:00:00 7.7 8 Sur 13 Sur 0 -- -- 67
2019-03-29 09:00:00 3.1 3 Noroeste 6 Noroeste 0 -- -- 78
2019-03-29 08:00:00 0.1 3 Norte 11 Norte 0 -- -- 85
2019-03-29 07:00:00 -0.1 3 Norte 8 Norte 0 -- -- 85
2019-03-29 06:00:00 0.8 0 Calma 6 Norte 0 -- -- 82
2019-03-29 05:00:00 2.1 3 Norte 6 Norte 0 -- -- 76
2019-03-29 04:00:00 3 2 Norte 9 Nordeste 0 -- -- 71
2019-03-29 03:00:00 3.9 3 Noroeste 9 Noroeste 0 -- -- 66
2019-03-29 02:00:00 4.3 4 Noroeste 15 Nordeste 0 -- -- 68
2019-03-29 01:00:00 4.7 0 Calma 14 Nordeste 0 -- -- 66
2019-03-29 00:00:00 5.7 3 Oeste 22 Nordeste 0 -- -- 66
2019-03-28 23:00:00 6.6 13 Nordeste 22 Nordeste 0 -- -- 66
2019-03-28 22:00:00 7 4 Norte 12 Norte 0 -- -- 65
2019-03-28 21:00:00 8.3 5 Sur 21 Nordeste 0 -- -- 60
2019-03-28 20:00:00 9.6 13 Nordeste 36 Nordeste 0 -- -- 55
2019-03-28 19:00:00 11.9 19 Nordeste 36 Nordeste 0 -- -- 50
2019-03-28 18:00:00 13.5 20 Nordeste 40 Nordeste 0 -- -- 46
2019-03-28 17:00:00 14.8 22 Nordeste 39 Nordeste 0 -- -- 43
2019-03-28 16:00:00 15.6 19 Este 39 Nordeste 0 -- -- 39
2019-03-28 15:00:00 15.5 18 Este 39 Nordeste 0 -- -- 37
2019-03-28 14:00:00 14.9 21 Nordeste 40 Este 0 -- -- 35
2019-03-28 13:00:00 13.4 22 Nordeste 38 Nordeste 0 -- -- 30
2019-03-28 12:00:00 11.8 21 Nordeste 36 Nordeste 0 -- -- 34
2019-03-28 11:00:00 10.8 13 Este 33 Nordeste 0 -- -- 39
2019-03-28 10:00:00 8.4 14 Este 24 Este 0 -- -- 49
2019-03-28 09:00:00 4.8 7 Sudeste 15 Este 0 -- -- 66
2019-03-28 08:00:00 2.6 8 Nordeste 18 Nordeste 0 -- -- 73
2019-03-28 07:00:00 2.2 7 Sur 23 Nordeste 0 -- -- 67
2019-03-28 06:00:00 2.3 2 Noroeste 23 Nordeste 0 -- -- 61
2019-03-28 05:00:00 0.9 5 Norte 9 Nordeste 0 -- -- 60
2019-03-28 04:00:00 1.9 2 Noroeste 17 Nordeste 0 -- -- 50
2019-03-28 03:00:00 2.2 6 Sudeste 14 Este 0 -- -- 41
2019-03-28 02:00:00 3 6 Este 13 Este 0 -- -- 41
2019-03-28 01:00:00 4.1 6 Norte 14 Nordeste 0 -- -- 36
2019-03-28 00:00:00 3.5 4 Sudeste 15 Sur 0 -- -- 47
2019-03-27 23:00:00 5.5 8 Sudeste 32 Nordeste 0 -- -- 39
2019-03-27 22:00:00 6.7 12 Nordeste 35 Nordeste 0 -- -- 38
2019-03-27 21:00:00 6.9 3 Norte 18 Noroeste 0 -- -- 38
2019-03-27 20:00:00 8.7 7 Nordeste 25 Este 0 -- -- 36
2019-03-27 19:00:00 11.3 15 Nordeste 44 Nordeste 0 -- -- 35
2019-03-27 18:00:00 13.2 19 Nordeste 44 Nordeste 0 -- -- 32
2019-03-27 17:00:00 14 25 Nordeste 40 Nordeste 0 -- -- 31
2019-03-27 16:00:00 14.3 17 Nordeste 44 Nordeste 0 -- -- 33
2019-03-27 15:00:00 14.2 20 Nordeste 41 Nordeste 0 -- -- 34
2019-03-27 14:00:00 14.4 24 Nordeste 43 Nordeste 0 -- -- 28
2019-03-27 13:00:00 13.7 28 Nordeste 45 Nordeste 0 -- -- 26
2019-03-27 12:00:00 13 25 Nordeste 52 Nordeste 0 -- -- 24
2019-03-27 11:00:00 11.5 22 Nordeste 43 Nordeste 0 -- -- 24
2019-03-27 10:00:00 9.8 18 Nordeste 43 Nordeste 0 -- -- 25
2019-03-27 09:00:00 5.4 5 Sudoeste 18 Nordeste 0 -- -- 43
2019-03-27 08:00:00 1.7 5 Sudeste 13 Sudeste 0 -- -- 56
2019-03-27 07:00:00 1.9 2 Sur 10 Nordeste 0 -- -- 59
2019-03-27 06:00:00 3.1 6 Nordeste 32 Este 0 -- -- 56
2019-03-27 05:00:00 4.2 19 Nordeste 45 Nordeste 0 -- -- 50
2019-03-27 04:00:00 4.2 32 Nordeste 58 Nordeste 0 -- -- 55
2019-03-27 03:00:00 4.3 33 Nordeste 55 Nordeste 0 -- -- 55
2019-03-27 02:00:00 3.5 32 Nordeste 53 Nordeste 0 -- -- 61
2019-03-27 01:00:00 3.5 25 Nordeste 42 Nordeste 0 -- -- 59
2019-03-27 00:00:00 3.7 18 Nordeste 32 Nordeste 0 -- -- 52
2019-03-26 23:00:00 3.8 13 Nordeste 32 Nordeste 0 -- -- 49
2019-03-26 22:00:00 4.6 13 Nordeste 25 Nordeste 0 -- -- 43
2019-03-26 21:00:00 5.6 7 Nordeste 39 Nordeste 0 -- -- 38
2019-03-26 20:00:00 6.8 21 Nordeste 40 Nordeste 0 -- -- 39
2019-03-26 19:00:00 9.3 14 Nordeste 50 Este 0 -- -- 34
2019-03-26 18:00:00 11.5 17 Nordeste 58 Nordeste 0 -- -- 28
2019-03-26 17:00:00 12.6 27 Nordeste 50 Nordeste 0 -- -- 19
2019-03-26 16:00:00 13.5 26 Nordeste 53 Este 0 -- -- 24
2019-03-26 15:00:00 13.1 31 Nordeste 53 Nordeste 0 -- -- 24
2019-03-26 14:00:00 12.4 26 Nordeste 62 Nordeste 0 -- -- 23
2019-03-26 13:00:00 11.3 32 Nordeste 56 Nordeste 0 -- -- 24
2019-03-26 12:00:00 10.4 27 Nordeste 60 Nordeste 0 -- -- 24
2019-03-26 11:00:00 8.7 31 Nordeste 55 Este 0 -- -- 31
2019-03-26 10:00:00 6.5 33 Nordeste 55 Nordeste 0 -- -- 41
2019-03-26 09:00:00 4 27 Nordeste 51 Nordeste 0 -- -- 63
2019-03-26 08:00:00 2.3 24 Nordeste 42 Nordeste 0 -- -- 76
2019-03-26 07:00:00 2.5 24 Nordeste 51 Nordeste 0 -- -- 76
2019-03-26 06:00:00 2.9 23 Nordeste 53 Nordeste 0 -- -- 75
2019-03-26 05:00:00 3.1 17 Nordeste 42 Nordeste 0 -- -- 80
2019-03-26 04:00:00 3.5 12 Nordeste 31 Nordeste 0 -- -- 77
2019-03-26 03:00:00 3.7 16 Nordeste 36 Nordeste 0 -- -- 79
2019-03-26 02:00:00 3 14 Nordeste 27 Nordeste 0 -- -- 76
2019-03-26 01:00:00 2 7 Norte 24 Nordeste 0 -- -- 78
2019-03-26 00:00:00 2.2 8 Nordeste 31 Este 0 -- -- 80
2019-03-25 23:00:00 3.1 15 Nordeste 30 Nordeste 0 -- -- 77
2019-03-25 22:00:00 4.1 5 Nordeste 27 Nordeste 0 -- -- 60
2019-03-25 21:00:00 5.4 9 Nordeste 33 Nordeste 0 -- -- 51
2019-03-25 20:00:00 6.4 15 Nordeste 45 Nordeste 0 -- -- 49
2019-03-25 19:00:00 7.9 25 Nordeste 43 Nordeste 0 -- -- 45
2019-03-25 18:00:00 9.9 25 Nordeste 53 Nordeste 0 -- -- 49
2019-03-25 17:00:00 10.7 24 Nordeste 45 Norte 0 -- -- 46
2019-03-25 16:00:00 11.2 23 Nordeste 44 Nordeste 0 -- -- 49
2019-03-25 15:00:00 10.6 31 Nordeste 51 Nordeste 0 -- -- 53
2019-03-25 14:00:00 10.9 23 Nordeste 45 Este 0 -- -- 55
2019-03-25 13:00:00 10.8 19 Nordeste 43 Este 0 -- -- 57
2019-03-25 12:00:00 9.8 21 Nordeste 40 Nordeste 0 -- -- 62
2019-03-25 11:00:00 9 20 Nordeste 44 Este 0 -- -- 63
2019-03-25 10:00:00 7.5 25 Nordeste 42 Este 0 -- -- 71
2019-03-25 09:00:00 5.8 18 Este 34 Este 0 -- -- 82
2019-03-25 08:00:00 3.9 12 Nordeste 28 Este 0 -- -- 89
2019-03-25 07:00:00 3.6 16 Este 29 Este 0 -- -- 91
2019-03-25 06:00:00 3.3 14 Nordeste 28 Nordeste 0 -- -- 92
2019-03-25 05:00:00 2.5 11 Este 18 Nordeste 0 -- -- 89
2019-03-25 04:00:00 3.4 7 Nordeste 16 Nordeste 0 -- -- 84
2019-03-25 03:00:00 2.6 5 Nordeste 12 Nordeste 0 -- -- 83
2019-03-25 02:00:00 3.6 5 Nordeste 13 Este 0 -- -- 78
2019-03-25 01:00:00 5.2 2 Oeste 14 Norte 0 -- -- 72
2019-03-25 00:00:00 6.5 6 Norte 15 Noroeste 0 -- -- 72
2019-03-24 23:00:00 6.8 6 Noroeste 30 Nordeste 0 -- -- 80
2019-03-24 22:00:00 8.1 12 Nordeste 25 Nordeste 0 -- -- 79
2019-03-24 21:00:00 9.6 12 Este 25 Este 0 -- -- 68
2019-03-24 20:00:00 11.6 5 Nordeste 32 Este 0 -- -- 62
2019-03-24 19:00:00 14.5 20 Nordeste 35 Nordeste 0 -- -- 48
2019-03-24 18:00:00 16.7 18 Nordeste 33 Nordeste 0 -- -- 39
2019-03-24 17:00:00 17.9 16 Este 29 Este 0 -- -- 34
2019-03-24 16:00:00 18.1 12 Nordeste 28 Nordeste 0 -- -- 34
2019-03-24 15:00:00 18.3 12 Este 27 Este 0 -- -- 32
2019-03-24 14:00:00 18.1 14 Este 34 Nordeste 0 -- -- 36
2019-03-24 13:00:00 17.3 10 Este 27 Este 0 -- -- 38
2019-03-24 12:00:00 16.9 9 Nordeste 23 Nordeste 0 -- -- 41
2019-03-24 11:00:00 15.2 10 Este 17 Este 0 -- -- 46
2019-03-24 10:00:00 9.6 4 Noroeste 12 Norte 0 -- -- 66
2019-03-24 09:00:00 5.4 8 Norte 14 Norte 0 -- -- 73
2019-03-24 08:00:00 1.9 7 Norte 17 Norte 0 -- -- 84
2019-03-24 07:00:00 1.9 5 Norte 12 Norte 0 -- -- 83
2019-03-24 06:00:00 3.1 7 Norte 17 Norte 0 -- -- 78
2019-03-24 05:00:00 4.1 5 Norte 13 Norte 0 -- -- 76
2019-03-24 04:00:00 5.2 4 Norte 8 Norte 0 -- -- 73
2019-03-24 03:00:00 6.1 2 Norte 6 Norte 0 -- -- 73
2019-03-24 02:00:00 7.4 0 Calma 10 Nordeste 0 -- -- 69
2019-03-24 01:00:00 8.6 5 Nordeste 13 Nordeste 0 -- -- 66
2019-03-24 00:00:00 9 4 Nordeste 13 Nordeste 0 -- -- 66
2019-03-23 23:00:00 8.9 4 Norte 16 Nordeste 0 -- -- 67
2019-03-23 22:00:00 9.7 12 Nordeste 17 Nordeste 0 -- -- 64
2019-03-23 21:00:00 9.9 9 Nordeste 17 Nordeste 0 -- -- 58
2019-03-23 20:00:00 9.2 6 Nordeste 8 Nordeste 0 -- -- 55
2019-03-23 19:00:00 15.8 3 Este 12 Este 0 -- -- 38
2019-03-23 18:00:00 19.4 4 Sur 23 Sur 0 -- -- 33
2019-03-23 17:00:00 19.6 13 Sur 23 Sur 0 -- -- 30
2019-03-23 16:00:00 19.5 12 Sudoeste 23 Sur 0 -- -- 31
2019-03-23 15:00:00 18.8 12 Sur 23 Sur 0 -- -- 35
2019-03-23 14:00:00 17.8 8 Sudeste 18 Sudeste 0 -- -- 39
2019-03-23 13:00:00 16.5 9 Sur 15 Sur 0 -- -- 42
2019-03-23 12:00:00 14.9 11 Sur 18 Sur 0 -- -- 48
2019-03-23 11:00:00 11.9 12 Sur 15 Sudoeste 0 -- -- 59
2019-03-23 10:00:00 7 4 Sudoeste 7 Sudoeste 0 -- -- 75
2019-03-23 09:00:00 2.4 2 Este 11 Norte 0 -- -- 84
2019-03-23 08:00:00 -0.4 7 Norte 15 Noroeste 0 -- -- 89
2019-03-23 07:00:00 -0.7 7 Norte 14 Nordeste 0 -- -- 89
2019-03-23 06:00:00 -1.3 3 Norte 12 Norte 0 -- -- 89
2019-03-23 05:00:00 0 6 Norte 12 Norte 0 -- -- 86
2019-03-23 04:00:00 0.6 5 Norte 12 Norte 0 -- -- 83
2019-03-23 03:00:00 1.2 7 Norte 13 Norte 0 -- -- 84
2019-03-23 02:00:00 0.8 5 Norte 10 Noroeste 0 -- -- 87
2019-03-23 01:00:00 1.5 3 Norte 8 Norte 0 -- -- 83
2019-03-23 00:00:00 1.9 4 Norte 8 Norte 0 -- -- 81
2019-03-22 23:00:00 3.2 4 Norte 8 Norte 0 -- -- 75
2019-03-22 22:00:00 4.1 4 Norte 11 Norte 0 -- -- 69
2019-03-22 21:00:00 4.7 8 Nordeste 19 Nordeste 0 -- -- 64
2019-03-22 20:00:00 7.5 3 Sudeste 11 Sur 0 -- -- 58
2019-03-22 19:00:00 15.7 7 Sur 15 Sur 0 -- -- 36
2019-03-22 18:00:00 16.9 9 Sudeste 23 Sur 0 -- -- 34
2019-03-22 17:00:00 16.5 7 Sudoeste 15 Sur 0 -- -- 35
2019-03-22 16:00:00 16.2 5 Sudeste 15 Sudoeste 0 -- -- 37
2019-03-22 15:00:00 15.6 7 Sudoeste 22 Oeste 0 -- -- 34
2019-03-22 14:00:00 15.3 11 Sur 21 Sur 0 -- -- 39
2019-03-22 13:00:00 13.7 10 Sur 17 Sur 0 -- -- 45
2019-03-22 12:00:00 11.8 5 Sur 13 Sur 0 -- -- 51
2019-03-22 11:00:00 8.3 6 Sur 12 Sudoeste 0 -- -- 66
2019-03-22 10:00:00 3.6 3 Sudoeste 6 Oeste 0 -- -- 78
2019-03-22 09:00:00 -0.7 5 Noroeste 9 Norte 0 -- -- 88
2019-03-22 08:00:00 -2.6 5 Norte 10 Norte 0 -- -- 90
2019-03-22 07:00:00 -2.5 4 Norte 10 Norte 0 -- -- 90
2019-03-22 06:00:00 -2.1 5 Norte 14 Norte 0 -- -- 90
2019-03-22 05:00:00 -1.7 6 Norte 16 Norte 0 -- -- 90
2019-03-22 04:00:00 -1.9 4 Norte 11 Norte 0 -- -- 92
2019-03-22 03:00:00 -1 5 Norte 16 Norte 0 -- -- 90
2019-03-22 02:00:00 -0.2 9 Norte 14 Noroeste 0 -- -- 91
2019-03-22 01:00:00 0.4 6 Norte 10 Norte 0 -- -- 92
2019-03-22 00:00:00 1.6 6 Norte 10 Norte 0 -- -- 89
2019-03-21 23:00:00 2.4 4 Norte 8 Noroeste 0 -- -- 86
2019-03-21 22:00:00 4 3 Norte 15 Nordeste 0 -- -- 80
2019-03-21 21:00:00 5.3 10 Nordeste 18 Nordeste 0 -- -- 77
2019-03-21 20:00:00 7 8 Este 22 Este 0 -- -- 67
2019-03-21 19:00:00 9.8 13 Este 30 Nordeste 0 -- -- 57
2019-03-21 18:00:00 11.5 14 Este 27 Nordeste 0 -- -- 53
2019-03-21 17:00:00 12.1 14 Este 30 Este 0 -- -- 48
2019-03-21 16:00:00 12.3 13 Este 28 Este 0 -- -- 49
2019-03-21 15:00:00 11.2 15 Este 33 Nordeste 0 -- -- 50
2019-03-21 14:00:00 10.1 18 Nordeste 32 Nordeste 0 -- -- 52
2019-03-21 13:00:00 9.6 17 Este 33 Este 0 -- -- 58
2019-03-21 12:00:00 7.9 21 Nordeste 33 Este 0 -- -- 61
2019-03-21 11:00:00 7.2 15 Este 33 Nordeste 0 -- -- 62
2019-03-21 10:00:00 5.7 14 Este 28 Nordeste 0 -- -- 68
2019-03-21 09:00:00 3 9 Nordeste 20 Este 0 -- -- 76
2019-03-21 08:00:00 0.9 15 Nordeste 28 Nordeste 0 -- -- 85
2019-03-21 07:00:00 0.6 15 Nordeste 23 Nordeste 0 -- -- 86
2019-03-21 06:00:00 1.2 17 Nordeste 32 Nordeste 0 -- -- 83
2019-03-21 05:00:00 0.7 15 Nordeste 34 Nordeste 0 -- -- 85
2019-03-21 04:00:00 0.5 20 Nordeste 30 Nordeste 0 -- -- 84
2019-03-21 03:00:00 0.8 12 Nordeste 30 Nordeste 0 -- -- 81
2019-03-21 02:00:00 0.8 12 Nordeste 21 Este 0 -- -- 77
2019-03-21 01:00:00 1.2 6 Este 27 Nordeste 0 -- -- 70
2019-03-21 00:00:00 1.9 20 Nordeste 31 Nordeste 0 -- -- 64
2019-03-20 23:00:00 1.4 5 Sudeste 18 Este 0 -- -- 68
2019-03-20 22:00:00 2.4 6 Este 22 Este 0 -- -- 58
2019-03-20 21:00:00 3.6 6 Nordeste 26 Este 0 -- -- 47
2019-03-20 20:00:00 4.9 17 Nordeste 34 Nordeste 0 -- -- 55
2019-03-20 19:00:00 6.8 18 Nordeste 39 Este 0 -- -- 52
2019-03-20 18:00:00 8.5 22 Nordeste 41 Nordeste 0 -- -- 51
2019-03-20 17:00:00 9.4 20 Nordeste 39 Nordeste 0 -- -- 50
2019-03-20 16:00:00 9.6 18 Nordeste 35 Este 0 -- -- 54
2019-03-20 15:00:00 9 18 Nordeste 35 Este 0 -- -- 55
2019-03-20 14:00:00 8.6 21 Nordeste 37 Este 0 -- -- 60
2019-03-20 13:00:00 7.2 15 Este 39 Este 0 -- -- 62
2019-03-20 12:00:00 7.8 18 Este 38 Este 0 -- -- 64
2019-03-20 11:00:00 7.1 18 Este 32 Nordeste 0 -- -- 70
2019-03-20 10:00:00 4.3 16 Este 29 Este 0 -- -- 84
2019-03-20 09:00:00 2.9 12 Este 25 Este 0 -- -- 92
2019-03-20 08:00:00 2 11 Este 20 Este 0 -- -- 95
2019-03-20 07:00:00 1.4 7 Este 15 Este 0 -- -- 94
2019-03-20 06:00:00 1.3 7 Este 14 Este 0 -- -- 93
2019-03-20 05:00:00 1.9 7 Sudeste 17 Nordeste 0 -- -- 92
2019-03-20 04:00:00 2.3 10 Este 21 Este 0 -- -- 94
2019-03-20 03:00:00 1.5 7 Este 15 Este 0 -- -- 94
2019-03-20 02:00:00 1.3 6 Nordeste 13 Este 0 -- -- 94
2019-03-20 01:00:00 1.3 4 Este 15 Este 0 -- -- 90
2019-03-20 00:00:00 1.9 8 Este 14 Este 0 -- -- 89
2019-03-19 23:00:00 2.8 7 Este 23 Este 0 -- -- 86
2019-03-19 22:00:00 3.2 8 Este 21 Nordeste 0 -- -- 85
2019-03-19 21:00:00 4.1 13 Nordeste 32 Nordeste 0 -- -- 81
2019-03-19 20:00:00 5.2 17 Nordeste 31 Nordeste 0 -- -- 76
2019-03-19 19:00:00 7.3 20 Nordeste 36 Nordeste 0 -- -- 63
2019-03-19 18:00:00 8.7 21 Nordeste 41 Nordeste 0 -- -- 64
2019-03-19 17:00:00 9.7 24 Nordeste 41 Nordeste 0 -- -- 55
2019-03-19 16:00:00 10.8 18 Nordeste 38 Este 0 -- -- 58
2019-03-19 15:00:00 10.8 20 Nordeste 38 Nordeste 0 -- -- 59
2019-03-19 14:00:00 10.1 18 Nordeste 36 Nordeste 0 -- -- 58
2019-03-19 13:00:00 8.9 19 Nordeste 35 Norte 0 -- -- 58
2019-03-19 12:00:00 8.3 9 Norte 19 Noroeste 0 -- -- 63
2019-03-19 11:00:00 7.4 6 Norte 13 Noroeste 0 -- -- 67
2019-03-19 10:00:00 4.8 3 Noroeste 7 Nordeste 0 -- -- 76
2019-03-19 09:00:00 2.9 3 Nordeste 7 Noroeste 0 -- -- 88
2019-03-19 08:00:00 1.5 4 Nordeste 8 Noroeste 0 -- -- 92
2019-03-19 07:00:00 1.1 5 Norte 9 Norte 0 -- -- 93
2019-03-19 06:00:00 1.3 2 Norte 9 Nordeste 0 -- -- 90
2019-03-19 05:00:00 0.7 4 Nordeste 9 Nordeste 0 -- -- 93
2019-03-19 04:00:00 0.6 4 Este 6 Este 0 -- -- 93
2019-03-19 03:00:00 0.9 0 Calma 5 Nordeste 0 -- -- 89
2019-03-19 02:00:00 2 4 Nordeste 6 Nordeste 0 -- -- 88
2019-03-19 01:00:00 2.5 0 Calma 3 Sudoeste 0 -- -- 85
2019-03-19 00:00:00 2.5 0 Calma 5 Norte 0 -- -- 84